sensor_id;sensor_type;location;lat;lon;timestamp;P1;durP1;ratioP1;P2;durP2;ratioP2
59159;SDS011;44941;45.058;20.076;2022-07-17T00:00:57;8.55;;;2.90;;
59159;SDS011;44941;45.058;20.076;2022-07-17T00:03:23;5.60;;;2.40;;
59159;SDS011;44941;45.058;20.076;2022-07-17T00:05:49;5.97;;;2.47;;
59159;SDS011;44941;45.058;20.076;2022-07-17T00:08:16;7.47;;;2.30;;
59159;SDS011;44941;45.058;20.076;2022-07-17T00:10:42;5.43;;;2.20;;
59159;SDS011;44941;45.058;20.076;2022-07-17T00:13:09;5.85;;;2.30;;
59159;SDS011;44941;45.058;20.076;2022-07-17T00:15:35;5.03;;;2.00;;
59159;SDS011;44941;45.058;20.076;2022-07-17T00:18:02;6.80;;;2.55;;
59159;SDS011;44941;45.058;20.076;2022-07-17T00:20:28;4.07;;;2.17;;
59159;SDS011;44941;45.058;20.076;2022-07-17T00:25:23;8.52;;;2.28;;
59159;SDS011;44941;45.058;20.076;2022-07-17T00:27:49;6.07;;;2.00;;
59159;SDS011;44941;45.058;20.076;2022-07-17T00:30:16;6.93;;;2.20;;
59159;SDS011;44941;45.058;20.076;2022-07-17T00:32:42;6.28;;;2.15;;
59159;SDS011;44941;45.058;20.076;2022-07-17T00:35:08;4.75;;;2.00;;
59159;SDS011;44941;45.058;20.076;2022-07-17T00:37:38;5.18;;;2.20;;
59159;SDS011;44941;45.058;20.076;2022-07-17T00:40:05;5.85;;;2.25;;
59159;SDS011;44941;45.058;20.076;2022-07-17T00:42:31;5.95;;;2.22;;
59159;SDS011;44941;45.058;20.076;2022-07-17T00:44:57;5.63;;;1.90;;
59159;SDS011;44941;45.058;20.076;2022-07-17T00:47:23;3.85;;;1.80;;
59159;SDS011;44941;45.058;20.076;2022-07-17T00:49:50;6.32;;;2.72;;
59159;SDS011;44941;45.058;20.076;2022-07-17T00:52:17;4.15;;;2.20;;
59159;SDS011;44941;45.058;20.076;2022-07-17T00:54:44;4.82;;;2.05;;
59159;SDS011;44941;45.058;20.076;2022-07-17T00:57:11;10.27;;;3.10;;
59159;SDS011;44941;45.058;20.076;2022-07-17T01:02:05;9.10;;;3.20;;
59159;SDS011;44941;45.058;20.076;2022-07-17T01:04:32;9.20;;;3.65;;
59159;SDS011;44941;45.058;20.076;2022-07-17T01:06:59;7.88;;;3.83;;
59159;SDS011;44941;45.058;20.076;2022-07-17T01:09:28;17.75;;;5.25;;
59159;SDS011;44941;45.058;20.076;2022-07-17T01:11:55;13.93;;;4.80;;
59159;SDS011;44941;45.058;20.076;2022-07-17T01:14:22;11.60;;;5.70;;
59159;SDS011;44941;45.058;20.076;2022-07-17T01:16:49;17.73;;;6.13;;
59159;SDS011;44941;45.058;20.076;2022-07-17T01:19:16;17.00;;;6.65;;
59159;SDS011;44941;45.058;20.076;2022-07-17T01:21:43;16.13;;;6.05;;
59159;SDS011;44941;45.058;20.076;2022-07-17T01:24:09;10.52;;;4.15;;
59159;SDS011;44941;45.058;20.076;2022-07-17T01:26:35;8.88;;;3.40;;
59159;SDS011;44941;45.058;20.076;2022-07-17T01:29:02;6.45;;;2.65;;
59159;SDS011;44941;45.058;20.076;2022-07-17T01:31:28;4.50;;;1.95;;
59159;SDS011;44941;45.058;20.076;2022-07-17T01:33:54;5.40;;;2.10;;
59159;SDS011;44941;45.058;20.076;2022-07-17T01:36:25;5.78;;;2.03;;
59159;SDS011;44941;45.058;20.076;2022-07-17T01:38:51;5.80;;;1.95;;
59159;SDS011;44941;45.058;20.076;2022-07-17T01:41:17;8.77;;;2.38;;
59159;SDS011;44941;45.058;20.076;2022-07-17T01:43:43;9.35;;;2.75;;
59159;SDS011;44941;45.058;20.076;2022-07-17T01:46:09;4.70;;;1.90;;
59159;SDS011;44941;45.058;20.076;2022-07-17T01:48:35;8.40;;;2.30;;
59159;SDS011;44941;45.058;20.076;2022-07-17T01:51:02;8.02;;;2.47;;
59159;SDS011;44941;45.058;20.076;2022-07-17T01:53:29;4.93;;;1.80;;
59159;SDS011;44941;45.058;20.076;2022-07-17T01:55:55;8.85;;;2.25;;
59159;SDS011;44941;45.058;20.076;2022-07-17T01:58:21;4.47;;;2.10;;
59159;SDS011;44941;45.058;20.076;2022-07-17T02:00:47;5.80;;;1.90;;
59159;SDS011;44941;45.058;20.076;2022-07-17T02:03:13;4.40;;;2.00;;
59159;SDS011;44941;45.058;20.076;2022-07-17T02:05:39;8.00;;;2.13;;
59159;SDS011;44941;45.058;20.076;2022-07-17T02:08:06;4.97;;;1.77;;
59159;SDS011;44941;45.058;20.076;2022-07-17T02:10:32;5.82;;;1.75;;
59159;SDS011;44941;45.058;20.076;2022-07-17T02:12:58;7.32;;;1.70;;
59159;SDS011;44941;45.058;20.076;2022-07-17T02:15:24;7.43;;;1.88;;
59159;SDS011;44941;45.058;20.076;2022-07-17T02:17:51;5.18;;;1.80;;
59159;SDS011;44941;45.058;20.076;2022-07-17T02:20:17;3.92;;;1.70;;
59159;SDS011;44941;45.058;20.076;2022-07-17T02:22:43;3.80;;;1.80;;
59159;SDS011;44941;45.058;20.076;2022-07-17T02:25:10;6.88;;;1.95;;
59159;SDS011;44941;45.058;20.076;2022-07-17T02:27:37;5.00;;;1.90;;
59159;SDS011;44941;45.058;20.076;2022-07-17T02:30:08;4.95;;;2.00;;
59159;SDS011;44941;45.058;20.076;2022-07-17T02:32:34;5.07;;;1.88;;
59159;SDS011;44941;45.058;20.076;2022-07-17T02:35:00;3.22;;;1.45;;
59159;SDS011;44941;45.058;20.076;2022-07-17T02:37:26;6.53;;;1.90;;
59159;SDS011;44941;45.058;20.076;2022-07-17T02:39:52;4.13;;;1.70;;
59159;SDS011;44941;45.058;20.076;2022-07-17T02:42:22;3.13;;;1.42;;
59159;SDS011;44941;45.058;20.076;2022-07-17T02:44:49;5.22;;;2.20;;
59159;SDS011;44941;45.058;20.076;2022-07-17T02:47:21;5.63;;;1.40;;
59159;SDS011;44941;45.058;20.076;2022-07-17T02:49:48;5.93;;;1.67;;
59159;SDS011;44941;45.058;20.076;2022-07-17T02:52:14;8.38;;;2.25;;
59159;SDS011;44941;45.058;20.076;2022-07-17T02:54:40;4.72;;;1.73;;
59159;SDS011;44941;45.058;20.076;2022-07-17T02:57:06;4.53;;;1.77;;
59159;SDS011;44941;45.058;20.076;2022-07-17T02:59:32;4.93;;;1.90;;
59159;SDS011;44941;45.058;20.076;2022-07-17T03:01:59;7.13;;;1.98;;
59159;SDS011;44941;45.058;20.076;2022-07-17T03:04:25;5.38;;;2.40;;
59159;SDS011;44941;45.058;20.076;2022-07-17T03:06:51;6.60;;;1.60;;
59159;SDS011;44941;45.058;20.076;2022-07-17T03:09:17;4.22;;;1.60;;
59159;SDS011;44941;45.058;20.076;2022-07-17T03:11:43;4.18;;;1.60;;
59159;SDS011;44941;45.058;20.076;2022-07-17T03:14:10;4.72;;;1.73;;
59159;SDS011;44941;45.058;20.076;2022-07-17T03:16:36;4.07;;;1.55;;
59159;SDS011;44941;45.058;20.076;2022-07-17T03:19:02;7.53;;;1.83;;
59159;SDS011;44941;45.058;20.076;2022-07-17T03:21:28;4.05;;;1.30;;
59159;SDS011;44941;45.058;20.076;2022-07-17T03:23:54;5.40;;;2.00;;
59159;SDS011;44941;45.058;20.076;2022-07-17T03:26:20;3.70;;;1.25;;
59159;SDS011;44941;45.058;20.076;2022-07-17T03:28:46;6.53;;;1.60;;
59159;SDS011;44941;45.058;20.076;2022-07-17T03:31:12;3.30;;;1.35;;
59159;SDS011;44941;45.058;20.076;2022-07-17T03:33:39;5.07;;;1.35;;
59159;SDS011;44941;45.058;20.076;2022-07-17T03:36:05;4.72;;;1.50;;
59159;SDS011;44941;45.058;20.076;2022-07-17T03:38:31;5.60;;;1.30;;
59159;SDS011;44941;45.058;20.076;2022-07-17T03:40:57;4.53;;;1.38;;
59159;SDS011;44941;45.058;20.076;2022-07-17T03:43:23;9.05;;;1.50;;
59159;SDS011;44941;45.058;20.076;2022-07-17T03:45:50;6.63;;;1.48;;
59159;SDS011;44941;45.058;20.076;2022-07-17T03:48:16;8.43;;;1.50;;
59159;SDS011;44941;45.058;20.076;2022-07-17T03:50:42;3.55;;;1.30;;
59159;SDS011;44941;45.058;20.076;2022-07-17T03:53:08;5.78;;;1.70;;
59159;SDS011;44941;45.058;20.076;2022-07-17T03:55:34;6.45;;;1.75;;
59159;SDS011;44941;45.058;20.076;2022-07-17T03:58:01;6.45;;;1.83;;
59159;SDS011;44941;45.058;20.076;2022-07-17T04:00:27;4.45;;;1.52;;
59159;SDS011;44941;45.058;20.076;2022-07-17T04:02:53;4.32;;;1.30;;
59159;SDS011;44941;45.058;20.076;2022-07-17T04:05:19;5.97;;;1.58;;
59159;SDS011;44941;45.058;20.076;2022-07-17T04:07:45;4.13;;;1.50;;
59159;SDS011;44941;45.058;20.076;2022-07-17T04:10:12;5.90;;;1.63;;
59159;SDS011;44941;45.058;20.076;2022-07-17T04:12:39;4.63;;;1.15;;
59159;SDS011;44941;45.058;20.076;2022-07-17T04:15:06;10.17;;;2.00;;
59159;SDS011;44941;45.058;20.076;2022-07-17T04:17:32;9.65;;;1.42;;
59159;SDS011;44941;45.058;20.076;2022-07-17T04:19:58;6.05;;;1.50;;
59159;SDS011;44941;45.058;20.076;2022-07-17T04:22:24;3.90;;;1.23;;
59159;SDS011;44941;45.058;20.076;2022-07-17T04:24:51;6.93;;;1.60;;
59159;SDS011;44941;45.058;20.076;2022-07-17T04:27:17;3.33;;;1.20;;
59159;SDS011;44941;45.058;20.076;2022-07-17T04:29:43;3.30;;;1.40;;
59159;SDS011;44941;45.058;20.076;2022-07-17T04:32:09;8.10;;;1.20;;
59159;SDS011;44941;45.058;20.076;2022-07-17T04:34:36;5.20;;;1.30;;
59159;SDS011;44941;45.058;20.076;2022-07-17T04:37:02;6.07;;;1.30;;
59159;SDS011;44941;45.058;20.076;2022-07-17T04:39:28;3.40;;;1.20;;
59159;SDS011;44941;45.058;20.076;2022-07-17T04:41:55;4.28;;;1.30;;
59159;SDS011;44941;45.058;20.076;2022-07-17T04:44:21;4.55;;;1.40;;
59159;SDS011;44941;45.058;20.076;2022-07-17T04:46:47;7.43;;;1.42;;
59159;SDS011;44941;45.058;20.076;2022-07-17T04:49:13;2.90;;;1.10;;
59159;SDS011;44941;45.058;20.076;2022-07-17T04:51:39;7.65;;;1.35;;
59159;SDS011;44941;45.058;20.076;2022-07-17T04:54:05;3.90;;;1.30;;
59159;SDS011;44941;45.058;20.076;2022-07-17T04:56:31;7.97;;;3.13;;
59159;SDS011;44941;45.058;20.076;2022-07-17T04:58:58;8.65;;;3.90;;
59159;SDS011;44941;45.058;20.076;2022-07-17T05:01:24;8.40;;;2.80;;
59159;SDS011;44941;45.058;20.076;2022-07-17T05:03:50;3.88;;;1.40;;
59159;SDS011;44941;45.058;20.076;2022-07-17T05:06:16;6.72;;;2.40;;
59159;SDS011;44941;45.058;20.076;2022-07-17T05:08:42;9.45;;;3.53;;
59159;SDS011;44941;45.058;20.076;2022-07-17T05:11:08;5.70;;;2.22;;
59159;SDS011;44941;45.058;20.076;2022-07-17T05:13:34;7.43;;;1.40;;
59159;SDS011;44941;45.058;20.076;2022-07-17T05:16:00;6.15;;;1.75;;
59159;SDS011;44941;45.058;20.076;2022-07-17T05:18:26;12.65;;;1.83;;
59159;SDS011;44941;45.058;20.076;2022-07-17T05:20:52;4.20;;;1.08;;
59159;SDS011;44941;45.058;20.076;2022-07-17T05:23:19;5.03;;;1.20;;
59159;SDS011;44941;45.058;20.076;2022-07-17T05:25:45;11.50;;;3.10;;
59159;SDS011;44941;45.058;20.076;2022-07-17T05:28:11;10.55;;;3.70;;
59159;SDS011;44941;45.058;20.076;2022-07-17T05:30:37;9.07;;;2.83;;
59159;SDS011;44941;45.058;20.076;2022-07-17T05:33:03;5.78;;;2.20;;
59159;SDS011;44941;45.058;20.076;2022-07-17T05:35:29;8.90;;;2.33;;
59159;SDS011;44941;45.058;20.076;2022-07-17T05:37:56;3.97;;;1.80;;
59159;SDS011;44941;45.058;20.076;2022-07-17T05:40:22;7.50;;;3.28;;
59159;SDS011;44941;45.058;20.076;2022-07-17T05:42:50;5.57;;;2.67;;
59159;SDS011;44941;45.058;20.076;2022-07-17T05:45:17;6.53;;;2.42;;
59159;SDS011;44941;45.058;20.076;2022-07-17T05:47:43;8.35;;;1.95;;
59159;SDS011;44941;45.058;20.076;2022-07-17T05:50:09;5.35;;;1.73;;
59159;SDS011;44941;45.058;20.076;2022-07-17T05:52:35;3.83;;;1.70;;
59159;SDS011;44941;45.058;20.076;2022-07-17T05:55:02;4.10;;;1.48;;
59159;SDS011;44941;45.058;20.076;2022-07-17T05:57:28;7.10;;;2.13;;
59159;SDS011;44941;45.058;20.076;2022-07-17T05:59:54;6.05;;;2.05;;
59159;SDS011;44941;45.058;20.076;2022-07-17T06:02:20;7.10;;;3.75;;
59159;SDS011;44941;45.058;20.076;2022-07-17T06:04:46;7.90;;;3.40;;
59159;SDS011;44941;45.058;20.076;2022-07-17T06:07:12;8.23;;;2.28;;
59159;SDS011;44941;45.058;20.076;2022-07-17T06:09:38;5.18;;;1.83;;
59159;SDS011;44941;45.058;20.076;2022-07-17T06:12:04;3.70;;;1.20;;
59159;SDS011;44941;45.058;20.076;2022-07-17T06:14:30;4.85;;;1.13;;
59159;SDS011;44941;45.058;20.076;2022-07-17T06:16:57;6.47;;;1.20;;
59159;SDS011;44941;45.058;20.076;2022-07-17T06:19:23;3.92;;;1.20;;
59159;SDS011;44941;45.058;20.076;2022-07-17T06:21:49;5.97;;;1.35;;
59159;SDS011;44941;45.058;20.076;2022-07-17T06:24:15;3.97;;;1.30;;
59159;SDS011;44941;45.058;20.076;2022-07-17T06:26:41;5.35;;;1.10;;
59159;SDS011;44941;45.058;20.076;2022-07-17T06:29:07;4.68;;;1.20;;
59159;SDS011;44941;45.058;20.076;2022-07-17T06:31:33;1.60;;;0.90;;
59159;SDS011;44941;45.058;20.076;2022-07-17T06:33:59;5.43;;;1.15;;
59159;SDS011;44941;45.058;20.076;2022-07-17T06:36:25;3.28;;;1.02;;
59159;SDS011;44941;45.058;20.076;2022-07-17T06:38:52;5.18;;;1.10;;
59159;SDS011;44941;45.058;20.076;2022-07-17T06:41:18;5.28;;;1.13;;
59159;SDS011;44941;45.058;20.076;2022-07-17T06:43:44;3.75;;;1.10;;
59159;SDS011;44941;45.058;20.076;2022-07-17T06:46:10;5.93;;;1.30;;
59159;SDS011;44941;45.058;20.076;2022-07-17T06:48:36;2.72;;;1.20;;
59159;SDS011;44941;45.058;20.076;2022-07-17T06:51:02;5.63;;;1.42;;
59159;SDS011;44941;45.058;20.076;2022-07-17T06:53:28;2.72;;;0.90;;
59159;SDS011;44941;45.058;20.076;2022-07-17T06:55:54;4.10;;;1.10;;
59159;SDS011;44941;45.058;20.076;2022-07-17T06:58:21;4.25;;;1.35;;
59159;SDS011;44941;45.058;20.076;2022-07-17T07:00:47;5.82;;;1.20;;
59159;SDS011;44941;45.058;20.076;2022-07-17T07:03:13;3.42;;;1.10;;
59159;SDS011;44941;45.058;20.076;2022-07-17T07:05:39;2.47;;;1.00;;
59159;SDS011;44941;45.058;20.076;2022-07-17T07:08:05;8.27;;;1.20;;
59159;SDS011;44941;45.058;20.076;2022-07-17T07:10:31;6.53;;;1.52;;
59159;SDS011;44941;45.058;20.076;2022-07-17T07:12:57;6.80;;;1.30;;
59159;SDS011;44941;45.058;20.076;2022-07-17T07:15:23;3.85;;;1.02;;
59159;SDS011;44941;45.058;20.076;2022-07-17T07:17:49;8.50;;;1.00;;
59159;SDS011;44941;45.058;20.076;2022-07-17T07:20:16;4.97;;;0.93;;
59159;SDS011;44941;45.058;20.076;2022-07-17T07:22:42;3.33;;;1.20;;
59159;SDS011;44941;45.058;20.076;2022-07-17T07:25:08;2.10;;;0.88;;
59159;SDS011;44941;45.058;20.076;2022-07-17T07:27:34;3.92;;;0.98;;
59159;SDS011;44941;45.058;20.076;2022-07-17T07:30:01;1.83;;;0.63;;
59159;SDS011;44941;45.058;20.076;2022-07-17T07:32:27;3.65;;;1.38;;
59159;SDS011;44941;45.058;20.076;2022-07-17T07:34:53;4.50;;;1.25;;
59159;SDS011;44941;45.058;20.076;2022-07-17T07:37:19;1.98;;;0.80;;
59159;SDS011;44941;45.058;20.076;2022-07-17T07:39:46;10.40;;;1.30;;
59159;SDS011;44941;45.058;20.076;2022-07-17T07:42:12;2.28;;;0.90;;
59159;SDS011;44941;45.058;20.076;2022-07-17T07:44:38;3.92;;;1.15;;
59159;SDS011;44941;45.058;20.076;2022-07-17T07:47:04;2.55;;;1.00;;
59159;SDS011;44941;45.058;20.076;2022-07-17T07:49:30;5.38;;;1.15;;
59159;SDS011;44941;45.058;20.076;2022-07-17T07:51:56;9.95;;;5.28;;
59159;SDS011;44941;45.058;20.076;2022-07-17T07:54:22;7.65;;;1.60;;
59159;SDS011;44941;45.058;20.076;2022-07-17T07:56:49;24.85;;;17.38;;
59159;SDS011;44941;45.058;20.076;2022-07-17T07:59:15;59.00;;;42.45;;
59159;SDS011;44941;45.058;20.076;2022-07-17T08:01:41;28.40;;;16.60;;
59159;SDS011;44941;45.058;20.076;2022-07-17T08:04:07;17.08;;;9.95;;
59159;SDS011;44941;45.058;20.076;2022-07-17T08:06:33;4.55;;;2.00;;
59159;SDS011;44941;45.058;20.076;2022-07-17T08:08:59;3.90;;;1.20;;
59159;SDS011;44941;45.058;20.076;2022-07-17T08:11:25;10.60;;;5.28;;
59159;SDS011;44941;45.058;20.076;2022-07-17T08:13:52;6.03;;;2.17;;
59159;SDS011;44941;45.058;20.076;2022-07-17T08:16:18;3.85;;;1.35;;
59159;SDS011;44941;45.058;20.076;2022-07-17T08:18:44;2.50;;;0.95;;
59159;SDS011;44941;45.058;20.076;2022-07-17T08:21:10;10.27;;;2.97;;
59159;SDS011;44941;45.058;20.076;2022-07-17T08:23:37;4.93;;;1.10;;
59159;SDS011;44941;45.058;20.076;2022-07-17T08:26:03;1.77;;;0.80;;
59159;SDS011;44941;45.058;20.076;2022-07-17T08:28:30;4.90;;;1.00;;
59159;SDS011;44941;45.058;20.076;2022-07-17T08:30:56;6.18;;;1.35;;
59159;SDS011;44941;45.058;20.076;2022-07-17T08:33:22;6.35;;;2.20;;
59159;SDS011;44941;45.058;20.076;2022-07-17T08:35:48;3.10;;;1.15;;
59159;SDS011;44941;45.058;20.076;2022-07-17T08:38:14;6.38;;;1.52;;
59159;SDS011;44941;45.058;20.076;2022-07-17T08:40:40;6.22;;;1.55;;
59159;SDS011;44941;45.058;20.076;2022-07-17T08:43:08;3.72;;;0.90;;
59159;SDS011;44941;45.058;20.076;2022-07-17T08:45:35;3.80;;;1.05;;
59159;SDS011;44941;45.058;20.076;2022-07-17T08:48:01;3.73;;;1.00;;
59159;SDS011;44941;45.058;20.076;2022-07-17T08:50:34;3.53;;;1.05;;
59159;SDS011;44941;45.058;20.076;2022-07-17T08:53:01;3.58;;;0.95;;
59159;SDS011;44941;45.058;20.076;2022-07-17T08:55:28;2.25;;;0.88;;
59159;SDS011;44941;45.058;20.076;2022-07-17T08:57:54;2.97;;;1.00;;
59159;SDS011;44941;45.058;20.076;2022-07-17T09:00:21;1.77;;;0.75;;
59159;SDS011;44941;45.058;20.076;2022-07-17T09:05:20;3.55;;;0.90;;
59159;SDS011;44941;45.058;20.076;2022-07-17T09:07:46;6.78;;;1.30;;
59159;SDS011;44941;45.058;20.076;2022-07-17T09:10:13;3.67;;;1.17;;
59159;SDS011;44941;45.058;20.076;2022-07-17T09:12:39;2.47;;;0.88;;
59159;SDS011;44941;45.058;20.076;2022-07-17T09:15:15;4.30;;;0.60;;
59159;SDS011;44941;45.058;20.076;2022-07-17T09:17:49;4.20;;;0.85;;
59159;SDS011;44941;45.058;20.076;2022-07-17T09:20:15;2.90;;;0.80;;
59159;SDS011;44941;45.058;20.076;2022-07-17T09:22:42;3.65;;;1.10;;
59159;SDS011;44941;45.058;20.076;2022-07-17T09:25:08;3.00;;;0.82;;
59159;SDS011;44941;45.058;20.076;2022-07-17T09:27:34;4.87;;;1.00;;
59159;SDS011;44941;45.058;20.076;2022-07-17T09:30:05;1.52;;;0.70;;
59159;SDS011;44941;45.058;20.076;2022-07-17T09:32:36;1.80;;;0.80;;
59159;SDS011;44941;45.058;20.076;2022-07-17T09:35:03;3.70;;;0.98;;
59159;SDS011;44941;45.058;20.076;2022-07-17T09:37:30;2.90;;;1.50;;
59159;SDS011;44941;45.058;20.076;2022-07-17T09:39:56;3.70;;;1.20;;
59159;SDS011;44941;45.058;20.076;2022-07-17T09:45:00;7.22;;;1.15;;
59159;SDS011;44941;45.058;20.076;2022-07-17T09:47:26;3.65;;;1.35;;
59159;SDS011;44941;45.058;20.076;2022-07-17T09:49:53;5.30;;;1.13;;
59159;SDS011;44941;45.058;20.076;2022-07-17T09:52:24;2.80;;;0.70;;
59159;SDS011;44941;45.058;20.076;2022-07-17T09:54:52;2.90;;;0.80;;
59159;SDS011;44941;45.058;20.076;2022-07-17T09:57:19;6.00;;;1.08;;
59159;SDS011;44941;45.058;20.076;2022-07-17T09:59:46;3.53;;;0.82;;
59159;SDS011;44941;45.058;20.076;2022-07-17T10:02:13;2.28;;;0.75;;
59159;SDS011;44941;45.058;20.076;2022-07-17T10:04:44;3.40;;;0.88;;
59159;SDS011;44941;45.058;20.076;2022-07-17T10:07:11;1.73;;;0.52;;
59159;SDS011;44941;45.058;20.076;2022-07-17T10:09:37;4.70;;;1.08;;
59159;SDS011;44941;45.058;20.076;2022-07-17T10:12:03;4.00;;;0.97;;
59159;SDS011;44941;45.058;20.076;2022-07-17T10:14:30;2.28;;;0.82;;
59159;SDS011;44941;45.058;20.076;2022-07-17T10:17:05;3.28;;;0.80;;
59159;SDS011;44941;45.058;20.076;2022-07-17T10:19:31;2.72;;;0.80;;
59159;SDS011;44941;45.058;20.076;2022-07-17T10:24:26;1.65;;;0.70;;
59159;SDS011;44941;45.058;20.076;2022-07-17T10:26:52;2.35;;;0.82;;
59159;SDS011;44941;45.058;20.076;2022-07-17T10:31:51;3.33;;;0.65;;
59159;SDS011;44941;45.058;20.076;2022-07-17T10:34:18;2.70;;;0.77;;
59159;SDS011;44941;45.058;20.076;2022-07-17T10:36:44;3.30;;;1.00;;
59159;SDS011;44941;45.058;20.076;2022-07-17T10:39:14;2.33;;;0.80;;
59159;SDS011;44941;45.058;20.076;2022-07-17T10:41:40;1.98;;;0.47;;
59159;SDS011;44941;45.058;20.076;2022-07-17T10:44:07;1.70;;;0.57;;
59159;SDS011;44941;45.058;20.076;2022-07-17T10:46:33;2.15;;;0.70;;
59159;SDS011;44941;45.058;20.076;2022-07-17T10:49:00;3.42;;;0.68;;
59159;SDS011;44941;45.058;20.076;2022-07-17T10:51:31;4.22;;;0.90;;
59159;SDS011;44941;45.058;20.076;2022-07-17T10:53:57;2.28;;;0.85;;
59159;SDS011;44941;45.058;20.076;2022-07-17T10:56:24;3.40;;;0.90;;
59159;SDS011;44941;45.058;20.076;2022-07-17T10:58:50;1.75;;;0.75;;
59159;SDS011;44941;45.058;20.076;2022-07-17T11:01:17;1.10;;;0.50;;
59159;SDS011;44941;45.058;20.076;2022-07-17T11:08:52;2.22;;;0.63;;
59159;SDS011;44941;45.058;20.076;2022-07-17T11:11:20;3.20;;;0.73;;
59159;SDS011;44941;45.058;20.076;2022-07-17T11:13:46;4.10;;;0.95;;
59159;SDS011;44941;45.058;20.076;2022-07-17T11:16:22;1.92;;;0.50;;
59159;SDS011;44941;45.058;20.076;2022-07-17T11:18:48;1.63;;;0.68;;
59159;SDS011;44941;45.058;20.076;2022-07-17T11:21:14;5.45;;;0.50;;
59159;SDS011;44941;45.058;20.076;2022-07-17T11:23:49;4.00;;;0.85;;
59159;SDS011;44941;45.058;20.076;2022-07-17T11:26:16;1.65;;;0.50;;
59159;SDS011;44941;45.058;20.076;2022-07-17T11:28:45;2.17;;;0.73;;
59159;SDS011;44941;45.058;20.076;2022-07-17T11:31:19;2.35;;;0.68;;
59159;SDS011;44941;45.058;20.076;2022-07-17T11:34:07;13.98;;;1.00;;
59159;SDS011;44941;45.058;20.076;2022-07-17T11:39:01;1.60;;;0.50;;
59159;SDS011;44941;45.058;20.076;2022-07-17T11:41:35;5.63;;;2.28;;
59159;SDS011;44941;45.058;20.076;2022-07-17T11:44:03;5.13;;;0.95;;
59159;SDS011;44941;45.058;20.076;2022-07-17T11:46:29;3.90;;;0.77;;
59159;SDS011;44941;45.058;20.076;2022-07-17T11:48:56;7.28;;;3.20;;
59159;SDS011;44941;45.058;20.076;2022-07-17T11:51:32;4.43;;;1.23;;
59159;SDS011;44941;45.058;20.076;2022-07-17T11:54:02;9.70;;;2.70;;
59159;SDS011;44941;45.058;20.076;2022-07-17T11:56:29;5.35;;;1.10;;
59159;SDS011;44941;45.058;20.076;2022-07-17T11:58:55;4.32;;;1.25;;
59159;SDS011;44941;45.058;20.076;2022-07-17T12:01:21;2.55;;;0.77;;
59159;SDS011;44941;45.058;20.076;2022-07-17T12:03:56;5.75;;;1.13;;
59159;SDS011;44941;45.058;20.076;2022-07-17T12:06:24;4.60;;;1.15;;
59159;SDS011;44941;45.058;20.076;2022-07-17T12:08:51;3.60;;;1.00;;
59159;SDS011;44941;45.058;20.076;2022-07-17T12:11:17;4.93;;;1.73;;
59159;SDS011;44941;45.058;20.076;2022-07-17T12:13:44;2.80;;;1.17;;
59159;SDS011;44941;45.058;20.076;2022-07-17T12:16:20;2.92;;;0.75;;
59159;SDS011;44941;45.058;20.076;2022-07-17T12:18:57;3.45;;;0.95;;
59159;SDS011;44941;45.058;20.076;2022-07-17T12:21:23;5.30;;;0.90;;
59159;SDS011;44941;45.058;20.076;2022-07-17T12:26:41;3.20;;;1.13;;
59159;SDS011;44941;45.058;20.076;2022-07-17T12:29:07;3.58;;;0.93;;
59159;SDS011;44941;45.058;20.076;2022-07-17T12:31:34;1.42;;;0.60;;
59159;SDS011;44941;45.058;20.076;2022-07-17T12:34:00;3.55;;;0.90;;
59159;SDS011;44941;45.058;20.076;2022-07-17T12:36:26;4.07;;;0.90;;
59159;SDS011;44941;45.058;20.076;2022-07-17T12:38:52;2.95;;;1.10;;
59159;SDS011;44941;45.058;20.076;2022-07-17T12:41:18;17.92;;;1.67;;
59159;SDS011;44941;45.058;20.076;2022-07-17T12:43:44;1.63;;;0.70;;
59159;SDS011;44941;45.058;20.076;2022-07-17T12:46:11;1.58;;;0.70;;
59159;SDS011;44941;45.058;20.076;2022-07-17T12:48:37;1.48;;;0.70;;
59159;SDS011;44941;45.058;20.076;2022-07-17T12:51:05;1.65;;;0.60;;
59159;SDS011;44941;45.058;20.076;2022-07-17T12:53:31;4.90;;;0.98;;
59159;SDS011;44941;45.058;20.076;2022-07-17T12:55:57;4.55;;;0.80;;
59159;SDS011;44941;45.058;20.076;2022-07-17T12:58:23;2.03;;;0.90;;
59159;SDS011;44941;45.058;20.076;2022-07-17T13:00:49;3.30;;;0.95;;
59159;SDS011;44941;45.058;20.076;2022-07-17T13:03:16;2.33;;;0.70;;
59159;SDS011;44941;45.058;20.076;2022-07-17T13:05:42;2.25;;;0.70;;
59159;SDS011;44941;45.058;20.076;2022-07-17T13:08:08;5.90;;;0.80;;
59159;SDS011;44941;45.058;20.076;2022-07-17T13:10:34;3.80;;;0.80;;
59159;SDS011;44941;45.058;20.076;2022-07-17T13:13:00;6.77;;;0.60;;
59159;SDS011;44941;45.058;20.076;2022-07-17T13:15:27;5.45;;;0.88;;
59159;SDS011;44941;45.058;20.076;2022-07-17T13:17:53;2.40;;;0.90;;
59159;SDS011;44941;45.058;20.076;2022-07-17T13:20:19;2.40;;;0.70;;
59159;SDS011;44941;45.058;20.076;2022-07-17T13:22:45;4.53;;;0.70;;
59159;SDS011;44941;45.058;20.076;2022-07-17T13:25:11;1.83;;;0.77;;
59159;SDS011;44941;45.058;20.076;2022-07-17T13:27:37;6.65;;;1.00;;
59159;SDS011;44941;45.058;20.076;2022-07-17T13:30:04;4.22;;;0.85;;
59159;SDS011;44941;45.058;20.076;2022-07-17T13:32:30;4.10;;;0.80;;
59159;SDS011;44941;45.058;20.076;2022-07-17T13:34:56;1.67;;;0.63;;
59159;SDS011;44941;45.058;20.076;2022-07-17T13:37:22;2.97;;;0.70;;
59159;SDS011;44941;45.058;20.076;2022-07-17T13:39:48;1.38;;;0.70;;
59159;SDS011;44941;45.058;20.076;2022-07-17T13:42:14;4.53;;;0.57;;
59159;SDS011;44941;45.058;20.076;2022-07-17T13:44:41;9.73;;;0.90;;
59159;SDS011;44941;45.058;20.076;2022-07-17T13:47:07;2.75;;;0.80;;
59159;SDS011;44941;45.058;20.076;2022-07-17T13:49:33;1.95;;;0.70;;
59159;SDS011;44941;45.058;20.076;2022-07-17T13:52:00;2.20;;;0.60;;
59159;SDS011;44941;45.058;20.076;2022-07-17T13:54:26;4.45;;;0.50;;
59159;SDS011;44941;45.058;20.076;2022-07-17T13:56:52;3.00;;;0.70;;
59159;SDS011;44941;45.058;20.076;2022-07-17T13:59:18;1.77;;;0.85;;
59159;SDS011;44941;45.058;20.076;2022-07-17T14:01:44;10.30;;;0.75;;
59159;SDS011;44941;45.058;20.076;2022-07-17T14:04:10;5.47;;;0.80;;
59159;SDS011;44941;45.058;20.076;2022-07-17T14:06:36;4.13;;;0.70;;
59159;SDS011;44941;45.058;20.076;2022-07-17T14:09:03;2.80;;;0.50;;
59159;SDS011;44941;45.058;20.076;2022-07-17T14:11:29;1.98;;;0.70;;
59159;SDS011;44941;45.058;20.076;2022-07-17T14:13:55;2.70;;;0.50;;
59159;SDS011;44941;45.058;20.076;2022-07-17T14:16:21;1.73;;;0.50;;
59159;SDS011;44941;45.058;20.076;2022-07-17T14:18:47;6.93;;;0.88;;
59159;SDS011;44941;45.058;20.076;2022-07-17T14:21:29;3.08;;;0.90;;
59159;SDS011;44941;45.058;20.076;2022-07-17T14:23:56;1.70;;;0.45;;
59159;SDS011;44941;45.058;20.076;2022-07-17T14:26:22;2.92;;;0.63;;
59159;SDS011;44941;45.058;20.076;2022-07-17T14:28:48;1.35;;;0.43;;
59159;SDS011;44941;45.058;20.076;2022-07-17T14:31:14;2.17;;;0.60;;
59159;SDS011;44941;45.058;20.076;2022-07-17T14:33:41;2.60;;;0.50;;
59159;SDS011;44941;45.058;20.076;2022-07-17T14:36:08;2.40;;;0.53;;
59159;SDS011;44941;45.058;20.076;2022-07-17T14:38:34;1.33;;;0.40;;
59159;SDS011;44941;45.058;20.076;2022-07-17T14:41:00;4.07;;;1.00;;
59159;SDS011;44941;45.058;20.076;2022-07-17T14:43:27;2.10;;;0.70;;
59159;SDS011;44941;45.058;20.076;2022-07-17T14:45:53;1.65;;;0.40;;
59159;SDS011;44941;45.058;20.076;2022-07-17T14:48:19;1.83;;;0.50;;
59159;SDS011;44941;45.058;20.076;2022-07-17T14:50:45;4.50;;;2.10;;
59159;SDS011;44941;45.058;20.076;2022-07-17T14:53:11;2.47;;;0.90;;
59159;SDS011;44941;45.058;20.076;2022-07-17T14:55:37;2.42;;;0.57;;